Time;durP1;ratioP1;P1;durP2;ratioP2;P2;SDS_P1;SDS_P2;PMS_P1;PMS_P2;Temp;Humidity;BMP_temperature;BMP_pressure;BME280_temperature;BME280_humidity;BME280_pressure;Samples;Min_cycle;Max_cycle;Signal;HPM_P1;HPM_P2
2022/09/13 00:00:41;;;;;;;735.67;345.58;;;;;;;;;;5111358;27;20910;-80
2022/09/13 00:03:08;;;;;;;743.42;351.75;;;;;;;;;;5091112;28;20107;-81
2022/09/13 00:05:35;;;;;;;741.70;348.88;;;;;;;;;;5090795;28;20029;-80
2022/09/13 00:08:01;;;;;;;734.60;344.02;;;;;;;;;;5090864;28;20086;-81
2022/09/13 00:10:27;;;;;;;736.92;347.30;;;;;;;;;;5090995;28;20062;-80
2022/09/13 00:12:54;;;;;;;733.53;343.17;;;;;;;;;;5089347;28;20024;-79
2022/09/13 00:15:20;;;;;;;729.47;342.13;;;;;;;;;;5091332;28;20077;-80
2022/09/13 00:20:18;;;;;;;725.53;345.63;;;;;;;;;;5111196;27;20400;-79
2022/09/13 00:24:44;;;;;;;722.33;345.45;;;;;;;;;;5091903;27;20538;-80
2022/09/13 00:27:35;;;;;;;725.63;349.95;;;;;;;;;;5112268;27;20743;-80
2022/09/13 00:31:23;;;;;;;714.40;341.17;;;;;;;;;;5111846;27;20565;-79
2022/09/13 00:33:49;;;;;;;699.78;332.35;;;;;;;;;;5110997;28;20020;-80
2022/09/13 00:36:15;;;;;;;711.97;337.00;;;;;;;;;;5111500;28;20024;-79
2022/09/13 00:38:42;;;;;;;716.33;344.23;;;;;;;;;;5111496;28;20464;-81
2022/09/13 00:41:11;;;;;;;716.35;348.63;;;;;;;;;;5109641;28;20051;-82
2022/09/13 00:43:42;;;;;;;717.88;350.38;;;;;;;;;;5111408;28;20050;-81
2022/09/13 00:48:13;;;;;;;712.90;342.40;;;;;;;;;;5111171;27;20958;-80
2022/09/13 00:50:42;;;;;;;715.25;347.25;;;;;;;;;;5111463;28;20108;-80
2022/09/13 00:53:13;;;;;;;716.40;350.63;;;;;;;;;;5111309;28;20027;-80
2022/09/13 00:57:03;;;;;;;715.30;350.92;;;;;;;;;;5112203;27;20585;-80
2022/09/13 00:59:35;;;;;;;714.33;352.15;;;;;;;;;;5111555;28;20469;-81
2022/09/13 01:02:03;;;;;;;701.17;336.05;;;;;;;;;;5109771;28;20426;-81
2022/09/13 01:04:36;;;;;;;704.67;342.15;;;;;;;;;;5111788;27;20411;-81
2022/09/13 01:07:05;;;;;;;712.70;351.05;;;;;;;;;;5110101;28;20114;-80
2022/09/13 01:10:06;;;;;;;707.10;343.30;;;;;;;;;;5112178;27;20613;-81
2022/09/13 01:12:39;;;;;;;702.50;339.73;;;;;;;;;;5111975;28;20027;-81
2022/09/13 01:15:06;;;;;;;704.10;339.98;;;;;;;;;;5109814;28;20028;-80
2022/09/13 01:18:58;;;;;;;708.08;344.40;;;;;;;;;;5112226;27;20656;-80
2022/09/13 01:21:25;;;;;;;708.63;344.30;;;;;;;;;;5111174;28;20028;-79
2022/09/13 01:24:00;;;;;;;703.30;337.77;;;;;;;;;;5111435;28;20031;-80
2022/09/13 01:26:35;;;;;;;712.50;349.50;;;;;;;;;;5111394;28;20084;-79
2022/09/13 01:29:07;;;;;;;711.70;349.02;;;;;;;;;;5110765;28;20081;-80
2022/09/13 01:31:46;;;;;;;701.13;335.15;;;;;;;;;;5111624;28;20105;-79
2022/09/13 01:34:12;;;;;;;713.15;352.08;;;;;;;;;;5109895;28;20031;-79
2022/09/13 01:36:50;;;;;;;713.83;350.20;;;;;;;;;;5110633;28;20058;-79
2022/09/13 01:39:45;;;;;;;709.47;350.13;;;;;;;;;;5111725;27;20392;-79
2022/09/13 01:44:39;;;;;;;699.03;345.08;;;;;;;;;;5111177;27;20573;-80
2022/09/13 01:48:16;;;;;;;695.40;339.05;;;;;;;;;;5111750;27;20418;-79
2022/09/13 01:50:45;;;;;;;705.83;350.05;;;;;;;;;;5111157;28;20024;-79
2022/09/13 01:54:56;;;;;;;696.60;338.58;;;;;;;;;;5051642;28;20928;-79
2022/09/13 02:00:12;;;;;;;697.70;343.75;;;;;;;;;;5112045;27;20393;-81
2022/09/13 02:06:02;;;;;;;701.05;349.95;;;;;;;;;;5111618;27;20113;-80
2022/09/13 02:08:29;;;;;;;682.80;334.42;;;;;;;;;;5091325;28;20032;-79
2022/09/13 02:11:05;;;;;;;697.05;345.67;;;;;;;;;;5091031;28;20078;-80
2022/09/13 02:15:38;;;;;;;703.13;344.33;;;;;;;;;;5112204;27;20397;-80
2022/09/13 02:18:08;;;;;;;706.38;351.33;;;;;;;;;;5110811;28;20058;-79
2022/09/13 02:20:36;;;;;;;706.65;350.90;;;;;;;;;;5111189;28;20391;-79
2022/09/13 02:23:05;;;;;;;706.47;350.85;;;;;;;;;;5111129;28;20427;-79
2022/09/13 02:25:32;;;;;;;701.15;345.73;;;;;;;;;;5110745;28;20051;-79
2022/09/13 02:28:37;;;;;;;708.17;349.77;;;;;;;;;;5071303;28;20395;-79
2022/09/13 02:31:05;;;;;;;707.30;345.55;;;;;;;;;;5070646;28;20063;-79
2022/09/13 02:33:37;;;;;;;708.13;343.88;;;;;;;;;;5052273;28;20374;-78
2022/09/13 02:37:29;;;;;;;702.50;342.30;;;;;;;;;;5111836;27;20979;-78
2022/09/13 02:39:59;;;;;;;694.47;334.25;;;;;;;;;;5109685;28;20020;-79
2022/09/13 02:42:43;;;;;;;703.58;346.52;;;;;;;;;;5111384;28;20101;-79
2022/09/13 02:45:09;;;;;;;704.05;349.50;;;;;;;;;;5111247;28;20073;-79
2022/09/13 02:51:36;;;;;;;703.50;347.95;;;;;;;;;;5112187;27;20993;-79
2022/09/13 02:54:11;;;;;;;697.97;341.65;;;;;;;;;;5111143;28;20476;-80
2022/09/13 02:56:44;;;;;;;705.15;347.65;;;;;;;;;;5111500;28;20065;-79
2022/09/13 03:00:20;;;;;;;704.22;344.40;;;;;;;;;;5111564;27;20394;-80
2022/09/13 03:03:24;;;;;;;701.38;338.88;;;;;;;;;;5111688;27;20392;-81
2022/09/13 03:06:09;;;;;;;712.35;351.00;;;;;;;;;;5070899;28;20555;-80
2022/09/13 03:08:36;;;;;;;712.47;349.70;;;;;;;;;;5070462;28;20021;-79
2022/09/13 03:14:43;;;;;;;711.67;350.75;;;;;;;;;;5111336;27;20385;-79
2022/09/13 03:17:25;;;;;;;695.05;333.33;;;;;;;;;;5111516;28;20027;-79
2022/09/13 03:21:55;;;;;;;702.38;344.58;;;;;;;;;;5111542;27;20422;-79
2022/09/13 03:24:38;;;;;;;707.35;350.73;;;;;;;;;;5111403;28;20020;-79
2022/09/13 03:27:04;;;;;;;;;;;;;;;;;;5111912;28;20016;-79
2022/09/13 03:29:36;;;;;;;698.38;343.50;;;;;;;;;;5111244;28;20433;-78
2022/09/13 03:35:18;;;;;;;691.38;341.45;;;;;;;;;;5112944;27;20465;-79
2022/09/13 03:37:55;;;;;;;688.03;339.77;;;;;;;;;;5111330;28;20024;-79
2022/09/13 03:40:25;;;;;;;691.30;342.58;;;;;;;;;;5111341;28;20574;-79
2022/09/13 03:42:54;;;;;;;696.58;345.58;;;;;;;;;;5109585;28;20050;-80
2022/09/13 03:45:25;;;;;;;679.47;332.27;;;;;;;;;;5111184;28;20047;-80
2022/09/13 03:47:51;;;;;;;683.95;335.90;;;;;;;;;;5111570;28;20024;-79
2022/09/13 03:50:20;;;;;;;685.97;342.50;;;;;;;;;;5110781;28;20035;-81
2022/09/13 03:52:47;;;;;;;680.70;337.40;;;;;;;;;;5111057;28;20020;-80
2022/09/13 03:55:13;;;;;;;674.95;332.73;;;;;;;;;;5110968;28;20027;-80
2022/09/13 03:57:40;;;;;;;683.83;343.48;;;;;;;;;;5110735;28;20027;-80
2022/09/13 04:00:06;;;;;;;684.58;342.10;;;;;;;;;;5110966;28;20016;-83
2022/09/13 04:02:32;;;;;;;678.92;334.80;;;;;;;;;;5110895;28;20080;-80
2022/09/13 04:04:58;;;;;;;681.80;339.60;;;;;;;;;;5110481;28;20504;-80
2022/09/13 04:07:25;;;;;;;685.28;341.38;;;;;;;;;;5110701;28;20485;-80
2022/09/13 04:09:51;;;;;;;679.45;333.95;;;;;;;;;;5110715;28;20108;-83
2022/09/13 04:13:00;;;;;;;698.22;349.42;;;;;;;;;;5112253;27;20377;-80
2022/09/13 04:15:30;;;;;;;684.85;337.95;;;;;;;;;;5111278;28;20028;-79
2022/09/13 04:17:56;;;;;;;690.13;341.80;;;;;;;;;;5110871;28;20080;-81
2022/09/13 04:20:23;;;;;;;686.53;332.33;;;;;;;;;;5111450;28;20035;-79
2022/09/13 04:22:53;;;;;;;692.75;340.75;;;;;;;;;;5111438;28;20043;-81
2022/09/13 04:25:20;;;;;;;693.65;345.52;;;;;;;;;;5111010;28;20111;-80
2022/09/13 04:27:46;;;;;;;689.38;340.77;;;;;;;;;;5109882;28;20031;-79
2022/09/13 04:30:12;;;;;;;691.92;339.17;;;;;;;;;;5110957;28;20024;-78
2022/09/13 04:32:38;;;;;;;684.60;336.00;;;;;;;;;;5110791;28;20399;-79
2022/09/13 04:35:07;;;;;;;686.63;342.27;;;;;;;;;;5111090;28;20040;-81
2022/09/13 04:37:33;;;;;;;679.85;337.95;;;;;;;;;;5110958;28;20353;-80
2022/09/13 04:39:59;;;;;;;683.00;338.77;;;;;;;;;;5110643;28;20020;-81
2022/09/13 04:42:25;;;;;;;678.33;336.45;;;;;;;;;;5110879;28;20031;-80
2022/09/13 04:44:51;;;;;;;680.45;339.58;;;;;;;;;;5110808;28;20500;-81
2022/09/13 04:47:18;;;;;;;679.58;336.50;;;;;;;;;;5112387;28;20020;-81
2022/09/13 04:49:44;;;;;;;676.67;333.48;;;;;;;;;;5110610;28;20019;-81
2022/09/13 04:52:10;;;;;;;680.60;339.20;;;;;;;;;;5110739;28;20062;-81
2022/09/13 04:54:36;;;;;;;678.40;336.80;;;;;;;;;;5109076;28;20046;-81
2022/09/13 04:57:03;;;;;;;682.53;339.70;;;;;;;;;;5110794;28;20028;-82
2022/09/13 04:59:29;;;;;;;676.60;337.27;;;;;;;;;;5110984;28;20028;-81
2022/09/13 05:01:55;;;;;;;678.65;338.88;;;;;;;;;;5111407;28;20030;-82
2022/09/13 05:04:21;;;;;;;672.50;334.00;;;;;;;;;;5110454;28;20028;-82
2022/09/13 05:06:47;;;;;;;675.13;337.85;;;;;;;;;;5110135;28;20478;-82
2022/09/13 05:09:15;;;;;;;673.85;337.52;;;;;;;;;;5108086;28;20114;-73
2022/09/13 05:11:42;;;;;;;669.75;334.42;;;;;;;;;;5109810;28;20051;-72
2022/09/13 05:14:11;;;;;;;671.13;340.27;;;;;;;;;;5109476;28;20103;-73
2022/09/13 05:16:37;;;;;;;675.85;344.65;;;;;;;;;;5108513;28;20093;-75
2022/09/13 05:19:03;;;;;;;673.45;336.95;;;;;;;;;;5109490;28;20027;-76
2022/09/13 05:21:30;;;;;;;667.72;339.90;;;;;;;;;;5109294;28;20032;-75
2022/09/13 05:24:06;;;;;;;685.58;337.83;;;;;;;;;;5110468;27;20947;-75
2022/09/13 05:29:58;;;;;;;696.85;346.13;;;;;;;;;;5110531;27;20424;-75
2022/09/13 05:32:26;;;;;;;686.05;335.17;;;;;;;;;;5092887;28;20031;-74
2022/09/13 05:34:53;;;;;;;699.00;337.70;;;;;;;;;;5107475;28;20032;-78
2022/09/13 05:38:56;;;;;;;646.25;326.02;;;;;;;;;;5110832;27;20377;-76
2022/09/13 05:41:22;;;;;;;672.40;342.63;;;;;;;;;;5109494;28;20031;-73
2022/09/13 05:43:48;;;;;;;663.00;327.02;;;;;;;;;;5110159;28;20028;-75
2022/09/13 05:46:18;;;;;;;660.45;322.33;;;;;;;;;;5107989;28;20640;-75
2022/09/13 05:52:28;;;;;;;690.65;343.90;;;;;;;;;;5151184;27;20130;-74
2022/09/13 05:54:54;;;;;;;713.80;348.90;;;;;;;;;;5128139;27;20023;-74
2022/09/13 05:57:20;;;;;;;698.63;329.52;;;;;;;;;;5128024;28;20088;-76
2022/09/13 05:59:46;;;;;;;718.47;345.48;;;;;;;;;;5112377;28;20069;-78
2022/09/13 06:03:51;;;;;;;710.92;338.52;;;;;;;;;;5110627;27;20404;-77
2022/09/13 06:06:17;;;;;;;718.20;350.70;;;;;;;;;;5109255;28;20050;-75
2022/09/13 06:09:25;;;;;;;713.90;348.27;;;;;;;;;;5111113;27;20389;-77
2022/09/13 06:15:01;;;;;;;710.83;333.10;;;;;;;;;;5064290;28;20334;-76
2022/09/13 06:17:27;;;;;;;707.95;344.05;;;;;;;;;;5066946;28;20036;-78
2022/09/13 06:19:53;;;;;;;714.85;351.15;;;;;;;;;;5061833;28;20710;-79
2022/09/13 06:22:19;;;;;;;715.05;341.70;;;;;;;;;;5038696;28;20507;-77
2022/09/13 06:24:45;;;;;;;733.08;345.10;;;;;;;;;;5052398;28;20100;-75
2022/09/13 06:27:51;;;;;;;722.70;340.38;;;;;;;;;;5108882;27;20389;-79
2022/09/13 06:32:15;;;;;;;701.17;328.88;;;;;;;;;;5108059;27;20958;-82
2022/09/13 06:34:41;;;;;;;712.55;339.92;;;;;;;;;;5110023;28;20070;-78
2022/09/13 06:37:07;;;;;;;720.42;351.50;;;;;;;;;;5109412;28;20382;-80
2022/09/13 06:39:34;;;;;;;719.10;341.15;;;;;;;;;;5110462;28;20103;-81
2022/09/13 06:42:00;;;;;;;721.65;343.45;;;;;;;;;;5109645;28;20028;-77
2022/09/13 06:44:26;;;;;;;728.00;342.02;;;;;;;;;;5109609;28;20036;-75
2022/09/13 06:46:52;;;;;;;731.97;341.77;;;;;;;;;;5108983;28;20054;-76
2022/09/13 06:49:18;;;;;;;736.35;341.27;;;;;;;;;;5109118;28;20437;-74
2022/09/13 06:52:46;;;;;;;741.95;343.77;;;;;;;;;;5101450;27;1518008;-75
2022/09/13 06:56:36;;;;;;;741.85;342.90;;;;;;;;;;5110583;27;20408;-76
2022/09/13 06:59:06;;;;;;;755.35;346.98;;;;;;;;;;5108833;28;20081;-73
2022/09/13 07:01:46;;;;;;;748.90;342.77;;;;;;;;;;5110163;27;20388;-78
2022/09/13 07:06:50;;;;;;;748.45;342.15;;;;;;;;;;5109545;27;20400;-81
2022/09/13 07:11:54;;;;;;;748.88;342.25;;;;;;;;;;5110784;27;20446;-81
2022/09/13 07:17:59;;;;;;;751.55;341.50;;;;;;;;;;5113796;27;20450;-80
2022/09/13 07:20:25;;;;;;;748.15;339.50;;;;;;;;;;5110992;28;20036;-76
2022/09/13 07:22:52;;;;;;;750.85;345.77;;;;;;;;;;5112125;28;20431;-77
2022/09/13 07:25:18;;;;;;;759.13;350.45;;;;;;;;;;5107296;28;20035;-76
2022/09/13 07:28:46;;;;;;;758.10;346.02;;;;;;;;;;5117520;27;20520;-75
2022/09/13 07:31:17;;;;;;;757.40;345.75;;;;;;;;;;5112026;28;20508;-72
2022/09/13 07:33:44;;;;;;;765.72;350.10;;;;;;;;;;5109814;28;20500;-77
2022/09/13 07:39:38;;;;;;;765.58;350.48;;;;;;;;;;5109393;27;20396;-78
2022/09/13 07:47:14;;;;;;;763.92;345.92;;;;;;;;;;5110505;27;20714;-78
2022/09/13 07:50:17;;;;;;;770.78;343.25;;;;;;;;;;5110599;27;20462;-78
2022/09/13 07:52:43;;;;;;;773.17;343.00;;;;;;;;;;5110954;28;20043;-78
2022/09/13 07:55:10;;;;;;;774.15;341.35;;;;;;;;;;5109564;28;20077;-78
2022/09/13 07:57:36;;;;;;;792.88;359.70;;;;;;;;;;5110778;28;20543;-78
2022/09/13 08:00:03;;;;;;;796.25;358.95;;;;;;;;;;5111075;28;20028;-75
2022/09/13 08:03:53;;;;;;;785.38;347.20;;;;;;;;;;5111006;27;20400;-79
2022/09/13 08:06:19;;;;;;;781.83;340.23;;;;;;;;;;5110057;28;20055;-78
2022/09/13 08:08:45;;;;;;;791.08;352.83;;;;;;;;;;5111147;28;20468;-77
2022/09/13 08:11:16;;;;;;;791.15;356.38;;;;;;;;;;5109429;28;20042;-77
2022/09/13 08:13:53;;;;;;;802.67;357.88;;;;;;;;;;5111629;27;20454;-79
2022/09/13 08:17:52;;;;;;;795.67;354.52;;;;;;;;;;5110834;27;20396;-78
2022/09/13 08:20:37;;;;;;;788.70;340.98;;;;;;;;;;5070925;28;20756;-78
2022/09/13 08:23:04;;;;;;;806.58;362.85;;;;;;;;;;5070861;28;20036;-76
2022/09/13 08:28:30;;;;;;;789.70;353.08;;;;;;;;;;5110994;27;20416;-76
2022/09/13 08:31:02;;;;;;;785.45;345.42;;;;;;;;;;5109396;28;20488;-77
2022/09/13 08:36:30;;;;;;;775.55;343.80;;;;;;;;;;5111123;27;20416;-76
2022/09/13 08:40:16;;;;;;;775.88;336.60;;;;;;;;;;5131748;27;20122;-77
2022/09/13 08:43:01;;;;;;;794.97;353.98;;;;;;;;;;5089874;28;20116;-81
2022/09/13 08:46:45;;;;;;;792.65;348.15;;;;;;;;;;5110768;27;20317;-76
2022/09/13 08:50:35;;;;;;;798.25;353.23;;;;;;;;;;5110413;27;20431;-77
2022/09/13 08:53:47;;;;;;;793.60;350.77;;;;;;;;;;5110396;27;20408;-77
2022/09/13 08:57:22;;;;;;;787.10;340.25;;;;;;;;;;5109609;27;20981;-77
2022/09/13 09:00:04;;;;;;;797.55;354.70;;;;;;;;;;5108719;28;20107;-76
2022/09/13 09:02:49;;;;;;;779.30;331.83;;;;;;;;;;5108477;28;20457;-76
2022/09/13 09:05:25;;;;;;;799.85;339.75;;;;;;;;;;5090009;28;20253;-78
2022/09/13 09:07:58;;;;;;;797.13;345.52;;;;;;;;;;5103839;28;20028;-78
2022/09/13 09:10:25;;;;;;;804.33;351.70;;;;;;;;;;5090344;28;20505;-79
2022/09/13 09:14:24;;;;;;;809.53;350.60;;;;;;;;;;5109264;27;20388;-79
2022/09/13 09:21:26;;;;;;;798.63;354.05;;;;;;;;;;5088137;28;20418;-73
2022/09/13 09:24:33;;;;;;;818.92;358.88;;;;;;;;;;5108728;27;20392;-77
2022/09/13 09:27:01;;;;;;;801.00;345.13;;;;;;;;;;5108199;28;20582;-78
2022/09/13 09:29:31;;;;;;;802.30;349.48;;;;;;;;;;5107951;28;20034;-76
2022/09/13 09:34:24;;;;;;;802.70;354.98;;;;;;;;;;5105593;27;21001;-77
2022/09/13 09:36:53;;;;;;;785.22;351.02;;;;;;;;;;5106643;28;20107;-77
2022/09/13 09:39:19;;;;;;;794.38;352.75;;;;;;;;;;5107261;28;20020;-77
2022/09/13 09:48:54;;;;;;;762.10;347.17;;;;;;;;;;5106655;27;20423;-78
2022/09/13 09:51:23;;;;;;;768.90;347.13;;;;;;;;;;5106557;28;20058;-77
2022/09/13 09:55:45;;;;;;;765.55;343.15;;;;;;;;;;5106263;27;20412;-78
2022/09/13 09:58:15;;;;;;;786.20;345.48;;;;;;;;;;5105742;28;20028;-75
2022/09/13 10:01:00;;;;;;;794.70;348.05;;;;;;;;;;5105940;28;20028;-80
2022/09/13 10:05:39;;;;;;;773.40;334.25;;;;;;;;;;5108675;27;20461;-78
2022/09/13 10:09:17;;;;;;;778.42;339.85;;;;;;;;;;5109123;27;20497;-80
2022/09/13 10:11:48;;;;;;;777.40;340.73;;;;;;;;;;5109863;28;20024;-83
2022/09/13 10:14:34;;;;;;;762.35;325.75;;;;;;;;;;5109851;28;20030;-78
2022/09/13 10:19:35;;;;;;;765.63;339.30;;;;;;;;;;5129081;27;20737;-81
2022/09/13 10:22:05;;;;;;;780.97;349.60;;;;;;;;;;5077359;28;20061;-79
2022/09/13 10:24:32;;;;;;;766.92;342.83;;;;;;;;;;5091951;28;20368;-79
2022/09/13 10:26:59;;;;;;;767.75;339.70;;;;;;;;;;5110296;28;20020;-80
2022/09/13 10:29:26;;;;;;;763.03;338.95;;;;;;;;;;5110390;28;20020;-81
2022/09/13 10:31:54;;;;;;;760.78;333.73;;;;;;;;;;5100453;28;20025;-76
2022/09/13 10:34:22;;;;;;;767.85;341.60;;;;;;;;;;5089063;28;20020;-76
2022/09/13 10:36:59;;;;;;;786.53;344.13;;;;;;;;;;5088379;28;20032;-77
2022/09/13 10:39:26;;;;;;;771.75;338.92;;;;;;;;;;5089828;28;20032;-75
2022/09/13 10:41:55;;;;;;;800.40;336.02;;;;;;;;;;5089772;28;20025;-77
2022/09/13 10:44:27;;;;;;;807.58;329.95;;;;;;;;;;5088380;28;20575;-75
2022/09/13 10:46:54;;;;;;;801.90;343.10;;;;;;;;;;5088616;28;20024;-76
2022/09/13 10:49:40;;;;;;;770.20;339.13;;;;;;;;;;5089745;28;20088;-77
2022/09/13 10:52:26;;;;;;;773.83;344.25;;;;;;;;;;5088284;28;20029;-75
2022/09/13 10:54:52;;;;;;;780.15;333.83;;;;;;;;;;5089668;28;20488;-76
2022/09/13 10:57:37;;;;;;;582.88;363.48;;;;;;;;;;5089326;28;20066;-75
2022/09/13 11:00:10;;;;;;;614.25;350.20;;;;;;;;;;5087681;28;20197;-75
2022/09/13 11:02:46;;;;;;;602.60;403.30;;;;;;;;;;5088073;28;20476;-74
2022/09/13 11:05:19;;;;;;;626.10;404.75;;;;;;;;;;5088079;28;20025;-76
2022/09/13 11:08:11;;;;;;;648.42;415.90;;;;;;;;;;5087401;28;20024;-76
2022/09/13 11:10:53;;;;;;;643.38;438.10;;;;;;;;;;5088481;28;20024;-76
2022/09/13 11:13:37;;;;;;;668.40;438.42;;;;;;;;;;5089390;28;20484;-77
2022/09/13 11:16:09;;;;;;;673.90;425.88;;;;;;;;;;5088226;28;20491;-77
2022/09/13 11:18:44;;;;;;;642.78;428.15;;;;;;;;;;5089235;28;20435;-76
2022/09/13 11:21:10;;;;;;;640.78;422.63;;;;;;;;;;5086522;28;20141;-75
2022/09/13 11:23:42;;;;;;;14.05;2.95;;;;;;;;;;5097141;28;20050;-76
2022/09/13 11:26:29;;;;;;;3.55;1.95;;;;;;;;;;5109056;28;20027;-74
2022/09/13 11:29:14;;;;;;;3.22;2.20;;;;;;;;;;5104077;28;20027;-76
2022/09/13 11:31:52;;;;;;;3.90;1.98;;;;;;;;;;5096306;28;20028;-78
2022/09/13 11:34:18;;;;;;;3.70;2.38;;;;;;;;;;5095779;28;20028;-77
2022/09/13 11:37:02;;;;;;;6.55;2.35;;;;;;;;;;5077604;28;20111;-77
2022/09/13 11:39:35;;;;;;;3.40;2.20;;;;;;;;;;5096006;28;20032;-80
2022/09/13 11:42:09;;;;;;;3.65;2.47;;;;;;;;;;5095667;28;20111;-78
2022/09/13 11:44:58;;;;;;;2.75;1.98;;;;;;;;;;5077414;28;20028;-77
2022/09/13 11:47:38;;;;;;;4.05;2.00;;;;;;;;;;5074797;28;20023;-77
2022/09/13 11:50:23;;;;;;;3.15;2.17;;;;;;;;;;5075597;28;20096;-77
2022/09/13 11:52:52;;;;;;;4.10;2.10;;;;;;;;;;5075537;28;20473;-75
2022/09/13 11:55:19;;;;;;;7.03;2.95;;;;;;;;;;5075089;28;20024;-74
2022/09/13 11:57:47;;;;;;;4.55;2.50;;;;;;;;;;5057173;28;20021;-75
2022/09/13 12:00:19;;;;;;;4.03;2.25;;;;;;;;;;5057292;28;20097;-73
2022/09/13 12:02:45;;;;;;;;;;;;;;;;;;5075400;28;20024;-76
2022/09/13 12:05:14;;;;;;;3.97;2.15;;;;;;;;;;5075337;28;19908;-75
2022/09/13 12:07:46;;;;;;;4.45;2.10;;;;;;;;;;5075091;28;20028;-76
2022/09/13 12:10:19;;;;;;;4.95;2.55;;;;;;;;;;5056726;28;20393;-75
2022/09/13 12:12:48;;;;;;;3.92;2.25;;;;;;;;;;5075124;28;20044;-78
2022/09/13 12:15:17;;;;;;;4.50;2.42;;;;;;;;;;5075018;28;20039;-79
2022/09/13 12:17:47;;;;;;;4.78;2.35;;;;;;;;;;5074857;28;20055;-78
2022/09/13 12:20:16;;;;;;;5.38;2.20;;;;;;;;;;5074889;28;20024;-79
2022/09/13 12:22:43;;;;;;;2.80;1.88;;;;;;;;;;5074522;28;20025;-78
2022/09/13 12:25:19;;;;;;;4.25;1.92;;;;;;;;;;5074862;28;20020;-77
2022/09/13 12:27:48;;;;;;;4.32;2.50;;;;;;;;;;5056967;28;20051;-77
2022/09/13 12:30:17;;;;;;;3.10;2.08;;;;;;;;;;5074336;28;20028;-78
2022/09/13 12:32:44;;;;;;;5.18;2.28;;;;;;;;;;5074749;28;20024;-77
2022/09/13 12:35:13;;;;;;;3.85;2.00;;;;;;;;;;5074381;28;20021;-76
2022/09/13 12:38:07;;;;;;;3.05;2.00;;;;;;;;;;5074101;28;20020;-74
2022/09/13 12:40:36;;;;;;;3.42;2.22;;;;;;;;;;5073311;28;20028;-69
2022/09/13 12:43:06;;;;;;;2.38;1.77;;;;;;;;;;5074614;28;20017;-71
2022/09/13 12:45:53;;;;;;;787.70;719.13;;;;;;;;;;5056178;28;20025;-70
2022/09/13 12:48:22;;;;;;;142.27;127.38;;;;;;;;;;5074209;28;20021;-70
2022/09/13 12:50:55;;;;;;;6.22;2.88;;;;;;;;;;5071912;28;20024;-72
2022/09/13 12:53:27;;;;;;;3.97;1.98;;;;;;;;;;5072264;28;20086;-71
2022/09/13 12:55:57;;;;;;;3.83;1.98;;;;;;;;;;5072441;28;20476;-71
2022/09/13 12:58:26;;;;;;;2.63;1.75;;;;;;;;;;5072416;28;20043;-71
2022/09/13 13:01:04;;;;;;;4.22;1.85;;;;;;;;;;5054751;28;20028;-70
2022/09/13 13:03:32;;;;;;;2.38;1.55;;;;;;;;;;5072875;28;20021;-70
2022/09/13 13:06:17;;;;;;;3.85;1.70;;;;;;;;;;5055459;28;20053;-80
2022/09/13 13:08:49;;;;;;;3.80;1.90;;;;;;;;;;5074743;28;20048;-77
2022/09/13 13:11:16;;;;;;;;;;;;;;;;;;5074684;28;20028;-76
2022/09/13 13:13:54;;;;;;;5.35;1.83;;;;;;;;;;5073887;28;19911;-75
2022/09/13 13:16:25;;;;;;;5.15;1.73;;;;;;;;;;5074126;28;20479;-76
2022/09/13 13:18:52;;;;;;;4.30;2.07;;;;;;;;;;5073459;28;20390;-75
2022/09/13 13:21:27;;;;;;;4.75;1.58;;;;;;;;;;5056185;28;20096;-76
2022/09/13 13:24:12;;;;;;;3.63;1.70;;;;;;;;;;5073970;28;20468;-75
2022/09/13 13:26:46;;;;;;;2.80;1.40;;;;;;;;;;5074059;28;20439;-76
2022/09/13 13:29:23;;;;;;;3.60;1.50;;;;;;;;;;5074528;28;20423;-76
2022/09/13 13:32:06;;;;;;;2.65;1.30;;;;;;;;;;5074031;28;20070;-76
2022/09/13 13:34:38;;;;;;;794.67;674.45;;;;;;;;;;5073445;28;20020;-77
2022/09/13 13:37:04;;;;;;;;;;;;;;;;;;5074240;28;20024;-77
2022/09/13 13:39:30;;;;;;;744.28;668.83;;;;;;;;;;5073810;28;20285;-77
2022/09/13 13:42:02;;;;;;;749.13;670.70;;;;;;;;;;5073348;28;20021;-77
2022/09/13 13:44:28;;;;;;;;;;;;;;;;;;5074484;28;20028;-78
2022/09/13 13:47:07;;;;;;;8.60;3.50;;;;;;;;;;5055267;28;20413;-77
2022/09/13 13:49:34;;;;;;;4.10;1.65;;;;;;;;;;5073592;28;20024;-77
2022/09/13 13:52:21;;;;;;;2.40;1.55;;;;;;;;;;5073346;28;20027;-77
2022/09/13 13:55:03;;;;;;;8.48;1.50;;;;;;;;;;5073375;28;20044;-77
2022/09/13 13:57:29;;;;;;;;;;;;;;;;;;5074000;28;20036;-77
2022/09/13 14:00:10;;;;;;;1.92;1.50;;;;;;;;;;5073384;28;20003;-77
2022/09/13 14:02:53;;;;;;;1.80;1.20;;;;;;;;;;5073247;28;20538;-76
2022/09/13 14:05:27;;;;;;;3.05;1.40;;;;;;;;;;5074458;28;20039;-76
2022/09/13 14:08:08;;;;;;;1.95;1.40;;;;;;;;;;5073355;28;20473;-77
2022/09/13 14:10:54;;;;;;;1.90;1.40;;;;;;;;;;5055818;28;20024;-76
2022/09/13 14:13:30;;;;;;;2.22;1.45;;;;;;;;;;5073979;28;20032;-76
2022/09/13 14:16:08;;;;;;;2.40;1.33;;;;;;;;;;5074140;28;20072;-76
2022/09/13 14:18:46;;;;;;;3.28;1.30;;;;;;;;;;5073953;28;20044;-76
2022/09/13 14:21:18;;;;;;;2.53;1.15;;;;;;;;;;5073413;28;20090;-76
2022/09/13 14:23:45;;;;;;;2.35;1.40;;;;;;;;;;5055180;28;20107;-76
2022/09/13 14:26:11;;;;;;;2.95;1.20;;;;;;;;;;5055494;28;20043;-76
2022/09/13 14:28:38;;;;;;;1.42;1.00;;;;;;;;;;5073558;28;20052;-76
2022/09/13 14:31:04;;;;;;;3.83;2.10;;;;;;;;;;5073038;28;20028;-76
2022/09/13 14:33:35;;;;;;;2.10;1.05;;;;;;;;;;5073274;28;20096;-76
2022/09/13 14:36:04;;;;;;;2.40;1.57;;;;;;;;;;5054830;28;20442;-76
2022/09/13 14:38:32;;;;;;;2.42;1.40;;;;;;;;;;5074987;28;20068;-77
2022/09/13 14:41:00;;;;;;;5.07;2.28;;;;;;;;;;5078691;28;20080;-77
2022/09/13 14:43:27;;;;;;;5.25;2.65;;;;;;;;;;5077593;28;20025;-77
2022/09/13 14:45:58;;;;;;;2.55;1.40;;;;;;;;;;5074786;28;20117;-77
2022/09/13 14:48:32;;;;;;;2.17;1.40;;;;;;;;;;5073304;28;20154;-77
2022/09/13 14:51:02;;;;;;;2.80;1.33;;;;;;;;;;5072524;28;20389;-77
2022/09/13 14:53:30;;;;;;;10.90;6.13;;;;;;;;;;5073580;28;20078;-77
2022/09/13 14:55:59;;;;;;;2.53;2.00;;;;;;;;;;5072915;28;20029;-77
2022/09/13 14:58:28;;;;;;;8.27;4.57;;;;;;;;;;5072279;28;20040;-77
2022/09/13 15:00:57;;;;;;;4.80;1.85;;;;;;;;;;5072949;28;20020;-77
2022/09/13 15:03:24;;;;;;;3.08;1.35;;;;;;;;;;5072757;28;20021;-77
2022/09/13 15:05:57;;;;;;;1.58;1.00;;;;;;;;;;5076151;28;20042;-77
2022/09/13 15:08:32;;;;;;;2.88;1.38;;;;;;;;;;5076693;28;20028;-77
2022/09/13 15:11:06;;;;;;;2.95;1.45;;;;;;;;;;5076450;28;20020;-77
2022/09/13 15:13:32;;;;;;;2.70;1.48;;;;;;;;;;5076380;28;20423;-77
2022/09/13 15:15:59;;;;;;;3.03;1.20;;;;;;;;;;5076271;28;20028;-77
2022/09/13 15:18:32;;;;;;;1.92;1.23;;;;;;;;;;5076208;28;20053;-76
2022/09/13 15:21:00;;;;;;;2.45;1.70;;;;;;;;;;5058359;28;20024;-77
2022/09/13 15:23:32;;;;;;;6.53;1.85;;;;;;;;;;5058448;28;20021;-77
2022/09/13 15:25:58;;;;;;;;;;;;;;;;;;5076075;28;20012;-77
2022/09/13 15:28:26;;;;;;;2.53;1.30;;;;;;;;;;5057973;28;19904;-76
2022/09/13 15:30:53;;;;;;;2.25;1.27;;;;;;;;;;5075899;28;20519;-79
2022/09/13 15:33:26;;;;;;;2.17;1.20;;;;;;;;;;5075661;28;20492;-76
2022/09/13 15:35:53;;;;;;;1.73;1.10;;;;;;;;;;5076698;28;20017;-77
2022/09/13 15:38:30;;;;;;;2.35;1.15;;;;;;;;;;5076036;28;20033;-77
2022/09/13 15:41:26;;;;;;;2.47;1.15;;;;;;;;;;5075824;28;20099;-78
2022/09/13 15:43:52;;;;;;;2.22;1.05;;;;;;;;;;5062975;28;20037;-78
2022/09/13 15:46:18;;;;;;;2.25;0.85;;;;;;;;;;5075609;28;20021;-78
2022/09/13 15:48:50;;;;;;;3.35;1.13;;;;;;;;;;5076025;28;20031;-78
2022/09/13 15:51:17;;;;;;;2.85;1.40;;;;;;;;;;5076260;28;20537;-77
2022/09/13 15:53:44;;;;;;;2.35;1.25;;;;;;;;;;5057444;28;20086;-77
2022/09/13 15:56:15;;;;;;;1.83;0.98;;;;;;;;;;5057793;28;20032;-77
2022/09/13 15:58:41;;;;;;;1.38;0.95;;;;;;;;;;5075569;28;20156;-77
2022/09/13 16:01:07;;;;;;;1.95;1.00;;;;;;;;;;5075386;28;20042;-77
2022/09/13 16:03:33;;;;;;;2.88;1.42;;;;;;;;;;5075809;28;20024;-78
2022/09/13 16:05:59;;;;;;;2.33;0.98;;;;;;;;;;5076096;28;20021;-78
2022/09/13 16:08:25;;;;;;;1.40;0.90;;;;;;;;;;5075372;28;20078;-77
2022/09/13 16:10:51;;;;;;;2.20;1.08;;;;;;;;;;5075451;28;20387;-77
2022/09/13 16:13:18;;;;;;;2.03;1.10;;;;;;;;;;5075462;28;20034;-77
2022/09/13 16:15:44;;;;;;;2.50;1.10;;;;;;;;;;5075005;28;20472;-77
2022/09/13 16:18:10;;;;;;;1.85;0.98;;;;;;;;;;5057320;28;20155;-77
2022/09/13 16:20:36;;;;;;;5.03;1.45;;;;;;;;;;5057484;28;20025;-76
2022/09/13 16:23:02;;;;;;;1.67;1.02;;;;;;;;;;5074985;28;20029;-76
2022/09/13 16:25:29;;;;;;;2.25;1.10;;;;;;;;;;5075337;28;20024;-77
2022/09/13 16:27:55;;;;;;;3.20;1.33;;;;;;;;;;5075568;28;20055;-77